Time;durP1;ratioP1;P1;durP2;ratioP2;P2;SDS_P1;SDS_P2;PMS_P1;PMS_P2;Temp;Humidity;BMP_temperature;BMP_pressure;BME280_temperature;BME280_humidity;BME280_pressure;Samples;Min_cycle;Max_cycle;Signal;HPM_P1;HPM_P2
2023/05/26 00:00:23;;;;;;;38.53;10.70;;;14.10;99.90;;;14.35;68.54;102850.97;5081600;28;20056;-67
2023/05/26 00:02:51;;;;;;;37.15;9.90;;;14.10;99.90;;;14.40;68.39;102850.13;5081961;28;20049;-67
2023/05/26 00:05:20;;;;;;;38.03;9.88;;;14.10;99.90;;;14.42;68.75;102847.47;5081850;28;20040;-67
2023/05/26 00:07:49;;;;;;;36.08;9.30;;;14.10;99.90;;;14.43;68.61;102851.94;5083043;28;20074;-67
2023/05/26 00:10:17;;;;;;;29.88;9.13;;;14.10;99.90;;;14.43;68.56;102851.94;5081011;28;20041;-68
2023/05/26 00:12:46;;;;;;;33.75;9.55;;;14.20;99.90;;;14.32;69.17;102854.47;5083393;28;20043;-67
2023/05/26 00:15:15;;;;;;;37.20;10.18;;;14.10;99.90;;;14.26;69.03;102858.81;5078940;28;20048;-67
2023/05/26 00:17:47;;;;;;;38.28;10.10;;;14.00;99.90;;;14.29;69.44;102854.44;5084459;28;20073;-67
2023/05/26 00:20:15;;;;;;;40.80;10.68;;;14.00;99.90;;;14.21;69.43;102861.41;5085083;28;20055;-67
2023/05/26 00:22:44;;;;;;;40.90;10.10;;;13.90;99.90;;;14.27;69.70;102868.56;5084924;28;20511;-67
2023/05/26 00:25:12;;;;;;;42.50;11.38;;;14.00;99.90;;;14.31;69.33;102866.00;5118371;27;20469;-67
2023/05/26 00:27:40;;;;;;;40.45;10.45;;;14.00;99.90;;;14.25;69.47;102857.00;5085574;28;20048;-67
2023/05/26 00:30:10;;;;;;;36.97;10.02;;;14.00;99.90;;;14.32;69.17;102867.78;5118771;27;20405;-67
2023/05/26 00:32:40;;;;;;;47.10;11.13;;;14.00;99.90;;;14.17;69.33;102858.69;5100123;28;20048;-67
2023/05/26 00:35:10;;;;;;;37.55;10.30;;;13.90;99.90;;;14.25;69.66;102868.56;5087552;28;20039;-68
2023/05/26 00:37:38;;;;;;;33.58;9.68;;;13.90;99.90;;;14.22;69.61;102863.22;5080116;28;20052;-67
2023/05/26 00:40:08;;;;;;;34.33;10.50;;;13.90;99.90;;;14.18;69.99;102868.47;5086643;28;20051;-67
2023/05/26 00:42:38;;;;;;;40.03;10.60;;;13.90;99.90;;;14.16;70.17;102870.22;5084628;28;20044;-67
2023/05/26 00:45:08;;;;;;;35.00;9.70;;;13.90;99.90;;;14.16;70.04;102879.09;5085592;28;20044;-67
2023/05/26 00:47:37;;;;;;;29.88;9.30;;;13.90;99.90;;;14.10;70.13;102878.13;5085892;28;20079;-67
2023/05/26 00:50:12;;;;;;;33.65;10.30;;;13.80;99.90;;;14.09;70.18;102877.22;5084356;28;20044;-67
2023/05/26 00:52:42;;;;;;;37.65;10.00;;;13.80;99.90;;;14.07;70.24;102856.81;5078209;28;20048;-67
2023/05/26 00:55:11;;;;;;;36.67;10.77;;;13.80;99.90;;;14.11;70.48;102872.81;5086158;28;20542;-67
2023/05/26 00:57:40;;;;;;;34.72;9.48;;;13.80;99.90;;;14.12;70.59;102876.38;5084317;28;20044;-67
2023/05/26 01:00:10;;;;;;;35.97;10.38;;;13.80;99.90;;;14.05;70.49;102872.72;5085433;28;20131;-67
2023/05/26 01:02:39;;;;;;;36.83;10.68;;;13.70;99.90;;;14.04;70.30;102867.38;5067921;28;20067;-67
2023/05/26 01:05:09;;;;;;;37.25;10.30;;;13.70;99.90;;;14.02;70.63;102869.13;5084179;28;20048;-68
2023/05/26 01:07:38;;;;;;;33.10;9.43;;;13.70;99.90;;;14.03;70.51;102869.13;5086264;28;20044;-67
2023/05/26 01:10:07;;;;;;;30.25;9.07;;;13.70;99.90;;;14.06;70.31;102871.88;5083033;28;20052;-67
2023/05/26 01:12:44;;;;;;;36.25;9.82;;;13.70;99.90;;;14.03;70.63;102874.47;5079317;28;20545;-67
2023/05/26 01:15:18;;;;;;;40.38;11.13;;;13.70;99.90;;;14.01;70.70;102872.69;5085038;28;20083;-67
2023/05/26 01:17:57;;;;;;;31.15;9.20;;;13.70;99.90;;;13.95;70.59;102869.94;5084234;28;20054;-67
2023/05/26 01:20:32;;;;;;;34.83;9.88;;;13.60;99.90;;;13.97;70.98;102876.16;5079999;28;20044;-67
2023/05/26 01:23:29;;;;;;;43.80;11.50;;;13.60;99.90;;;13.97;70.83;102878.84;5084733;28;20044;-67
2023/05/26 01:26:21;;;;;;;31.98;9.60;;;13.60;99.90;;;13.79;70.83;102871.47;5083373;28;20045;-67
2023/05/26 01:28:56;;;;;;;35.42;9.50;;;13.60;99.90;;;13.83;71.16;102875.97;5080071;28;20447;-67
2023/05/26 01:31:25;;;;;;;34.63;10.13;;;13.60;99.90;;;13.84;71.11;102876.88;5083184;28;20072;-67
2023/05/26 01:33:53;;;;;;;39.35;10.27;;;13.50;99.90;;;13.87;71.00;102876.91;5086038;28;20036;-67
2023/05/26 01:36:22;;;;;;;38.45;10.07;;;13.50;99.90;;;13.80;71.15;102873.25;5078323;28;20086;-67
2023/05/26 01:38:51;;;;;;;35.70;8.93;;;13.50;99.90;;;13.73;71.13;102871.38;5079057;28;20045;-67
2023/05/26 01:41:27;;;;;;;36.83;9.52;;;13.40;99.90;;;13.76;71.17;102878.53;5084230;28;20097;-67
2023/05/26 01:44:03;;;;;;;37.55;9.70;;;13.50;99.90;;;13.72;71.25;102874.03;5067243;28;20052;-67
2023/05/26 01:46:42;;;;;;;37.25;9.05;;;13.40;99.90;;;13.67;70.97;102875.72;5082356;28;20056;-67
2023/05/26 01:49:14;;;;;;;35.30;9.65;;;13.40;99.90;;;13.63;70.87;102882.75;5080260;28;20829;-67
2023/05/26 01:51:48;;;;;;;38.95;9.70;;;13.30;99.90;;;13.65;70.99;102883.66;5083468;28;20458;-67
2023/05/26 01:54:20;;;;;;;36.45;9.95;;;13.30;99.90;;;13.61;70.80;102881.84;5085530;28;20048;-67
2023/05/26 01:56:50;;;;;;;32.42;9.38;;;13.30;99.90;;;13.67;71.06;102881.03;5079014;28;20079;-67
2023/05/26 01:59:21;;;;;;;38.83;10.30;;;13.30;99.90;;;13.63;70.94;102884.53;5083500;28;20059;-67
2023/05/26 02:01:50;;;;;;;37.35;9.80;;;13.30;99.90;;;13.64;71.25;102895.19;5066090;28;20098;-67
2023/05/26 02:04:18;;;;;;;46.17;9.93;;;13.30;99.90;;;13.65;71.04;102894.31;5082481;28;20055;-67
2023/05/26 02:06:47;;;;;;;40.17;9.60;;;13.30;99.90;;;13.58;71.08;102898.66;5083081;28;20044;-68
2023/05/26 02:09:16;;;;;;;37.08;9.20;;;13.30;99.90;;;13.54;71.03;102901.22;5081332;28;20524;-68
2023/05/26 02:11:45;;;;;;;40.88;10.07;;;13.20;99.90;;;13.48;71.39;102899.38;5060667;28;20052;-68
2023/05/26 02:14:15;;;;;;;35.83;9.45;;;13.20;99.90;;;13.39;71.35;102885.91;5080277;28;20083;-67
2023/05/26 02:16:45;;;;;;;46.65;10.45;;;13.10;99.90;;;13.48;71.42;102907.34;5085004;28;20511;-67
2023/05/26 02:19:14;;;;;;;35.40;10.65;;;13.10;99.90;;;13.50;71.33;102905.63;5098419;28;20131;-67
2023/05/26 02:21:42;;;;;;;28.92;8.70;;;13.10;99.90;;;13.54;71.11;102906.56;5082718;28;20044;-67
2023/05/26 02:24:12;;;;;;;35.92;10.30;;;13.20;99.90;;;13.51;71.42;102918.03;5083383;28;20052;-67
2023/05/26 02:26:40;;;;;;;36.17;9.25;;;13.10;99.90;;;13.49;71.53;102908.25;5082913;28;20056;-67
2023/05/26 02:29:08;;;;;;;35.35;9.65;;;13.10;99.90;;;13.55;71.46;102905.66;5082646;28;20048;-67
2023/05/26 02:31:37;;;;;;;37.28;9.52;;;13.20;99.90;;;13.55;71.77;102913.63;5082192;28;20535;-67
2023/05/26 02:34:12;;;;;;;42.15;9.93;;;13.20;99.90;;;13.57;71.79;102904.81;5093325;28;20063;-67
2023/05/26 02:36:41;;;;;;;31.40;9.43;;;13.20;99.90;;;13.50;71.46;102900.28;5083221;28;20090;-67
2023/05/26 02:39:10;;;;;;;37.00;9.15;;;13.20;99.90;;;13.56;71.84;102904.81;5064844;28;20386;-67
2023/05/26 02:41:38;;;;;;;31.55;9.25;;;13.30;99.90;;;13.54;71.93;102912.78;5083095;28;20039;-67
2023/05/26 02:44:07;;;;;;;39.53;10.32;;;13.20;99.90;;;13.49;71.82;102909.13;5083095;28;20547;-67
2023/05/26 02:46:35;;;;;;;33.83;9.30;;;13.20;99.90;;;13.47;71.85;102905.53;5082610;28;20105;-67
2023/05/26 02:49:03;;;;;;;35.85;9.05;;;13.20;99.90;;;13.45;71.69;102898.44;5083926;28;20131;-67
2023/05/26 02:51:35;;;;;;;37.30;9.48;;;13.20;99.90;;;13.41;71.55;102902.78;5080335;28;20110;-67
2023/05/26 02:54:03;;;;;;;34.47;10.50;;;13.10;99.90;;;13.39;71.47;102904.50;5092550;28;20066;-68
2023/05/26 02:56:32;;;;;;;40.53;10.10;;;13.10;99.90;;;13.40;71.37;102913.41;5083110;28;20058;-67
2023/05/26 02:59:00;;;;;;;40.17;10.05;;;13.10;99.90;;;13.37;71.44;102913.34;5097143;28;20045;-67
2023/05/26 03:01:29;;;;;;;33.55;10.05;;;13.00;99.90;;;13.39;71.58;102915.16;5099633;28;20058;-67
2023/05/26 03:03:57;;;;;;;38.67;9.55;;;13.10;99.90;;;13.41;71.48;102910.75;5064734;28;20531;-67
2023/05/26 03:06:27;;;;;;;40.58;10.23;;;13.10;99.90;;;13.40;71.34;102913.41;5082697;28;20067;-67
2023/05/26 03:08:56;;;;;;;35.88;9.55;;;13.10;99.90;;;13.42;71.65;102906.34;5065736;28;20114;-67
2023/05/26 03:11:25;;;;;;;35.63;9.35;;;13.10;99.90;;;13.40;71.54;102910.75;5080507;28;20094;-67
2023/05/26 03:13:53;;;;;;;35.10;9.77;;;13.10;99.90;;;13.36;71.58;102914.22;5082672;28;20154;-67
2023/05/26 03:16:23;;;;;;;31.00;8.93;;;13.10;99.90;;;13.29;71.72;102899.94;5096576;28;20040;-67
2023/05/26 03:18:52;;;;;;;33.22;9.52;;;13.00;99.90;;;13.31;71.38;102916.81;5092796;28;20139;-67
2023/05/26 03:21:20;;;;;;;40.28;9.38;;;13.00;99.90;;;13.34;71.38;102913.28;5082460;28;20054;-67
2023/05/26 03:24:10;;;;;;;31.65;9.13;;;13.00;99.90;;;13.25;71.85;102914.03;5059386;28;20084;-67
2023/05/26 03:26:39;;;;;;;33.47;9.35;;;12.90;99.90;;;13.23;71.75;102910.47;5076083;28;20059;-67
2023/05/26 03:29:07;;;;;;;40.95;10.43;;;13.00;99.90;;;13.23;71.98;102910.47;5083467;28;20497;-67
2023/05/26 03:31:37;;;;;;;34.95;8.93;;;12.90;99.90;;;13.23;71.91;102906.91;5081628;28;20054;-67
2023/05/26 03:34:06;;;;;;;31.75;9.25;;;12.90;99.90;;;13.18;72.14;102914.78;5082727;28;20048;-67
2023/05/26 03:36:36;;;;;;;44.00;9.88;;;12.90;99.90;;;13.25;72.18;102927.34;5082647;28;20040;-67
2023/05/26 03:39:17;;;;;;;39.42;9.60;;;12.90;99.90;;;13.21;71.94;102916.63;5075776;28;20044;-67
2023/05/26 03:41:46;;;;;;;40.75;10.40;;;12.90;99.90;;;12.49;72.01;102791.31;5083384;28;20082;-67
2023/05/26 03:44:18;;;;;;;36.75;9.45;;;12.80;99.90;;;13.22;71.92;102932.56;5097181;28;20048;-67
2023/05/26 03:46:47;;;;;;;37.75;9.23;;;12.90;99.90;;;12.93;72.19;102872.66;5080946;28;20051;-67
2023/05/26 03:49:16;;;;;;;34.15;8.75;;;12.90;99.90;;;13.19;71.72;102919.25;5065678;28;20616;-67
2023/05/26 03:51:45;;;;;;;31.10;8.73;;;12.90;99.90;;;13.23;72.04;102926.41;5081056;28;20084;-67
2023/05/26 03:54:13;;;;;;;34.08;9.23;;;12.90;99.90;;;13.21;71.78;102925.50;5103185;28;20069;-67
2023/05/26 03:56:43;;;;;;;35.90;10.07;;;12.90;99.90;;;13.20;71.90;102920.16;5099745;28;20056;-67
2023/05/26 03:59:12;;;;;;;35.37;9.87;;;12.90;99.90;;;13.26;71.74;102937.09;5096906;28;20400;-67
2023/05/26 04:01:41;;;;;;;35.22;10.15;;;13.00;99.90;;;13.24;71.97;102935.28;5085855;28;20055;-67
2023/05/26 04:04:10;;;;;;;41.58;10.27;;;12.90;99.90;;;13.21;71.94;102925.50;5101245;28;20044;-67
2023/05/26 04:06:38;;;;;;;41.80;10.35;;;13.00;99.90;;;13.15;71.86;102933.34;5086161;28;20123;-66
2023/05/26 04:09:07;;;;;;;38.28;10.15;;;12.90;99.90;;;13.22;72.12;102927.25;5101673;28;20382;-67
2023/05/26 04:11:36;;;;;;;33.83;9.60;;;12.90;99.90;;;13.19;72.13;102924.56;5085287;28;20113;-67
2023/05/26 04:14:06;;;;;;;33.58;9.10;;;13.00;99.90;;;13.18;72.09;102917.44;5085784;28;20448;-67
2023/05/26 04:16:35;;;;;;;;;;;12.90;99.90;;;13.23;72.14;102925.50;5100236;28;20048;-67
2023/05/26 04:19:03;;;;;;;40.78;10.95;;;13.00;99.90;;;13.19;72.60;102929.88;5080164;28;19924;-69
2023/05/26 04:21:31;;;;;;;32.88;9.23;;;12.90;99.90;;;13.21;72.38;102929.91;5085923;28;20052;-67
2023/05/26 04:24:00;;;;;;;39.80;10.13;;;12.90;99.90;;;13.26;72.23;102926.44;5084555;28;20076;-67
2023/05/26 04:26:33;;;;;;;42.03;10.75;;;12.90;99.90;;;13.22;72.16;102927.25;5085206;28;20476;-67
2023/05/26 04:29:21;;;;;;;35.47;9.13;;;12.90;99.90;;;13.21;71.94;102932.56;5063592;28;20045;-67
2023/05/26 04:32:20;;;;;;;37.95;9.60;;;12.90;99.90;;;13.26;72.49;102937.09;5081407;28;20093;-67
2023/05/26 04:35:24;;;;;;;32.95;9.48;;;13.00;99.90;;;13.26;72.50;102938.84;5075259;28;20060;-67
2023/05/26 04:37:53;;;;;;;44.83;10.20;;;13.00;99.90;;;13.31;72.30;102930.09;5099927;28;20147;-67
2023/05/26 04:40:23;;;;;;;39.00;10.07;;;13.00;99.90;;;13.35;72.26;102939.94;5086835;28;20075;-67
2023/05/26 04:42:51;;;;;;;41.58;10.13;;;13.00;99.90;;;12.55;71.92;102810.00;5079554;28;20441;-67
2023/05/26 04:45:22;;;;;;;39.38;9.88;;;13.00;99.90;;;13.22;71.94;102939.69;5086899;28;20127;-67
2023/05/26 04:47:54;;;;;;;39.45;10.40;;;13.00;99.90;;;13.30;71.97;102944.25;5067386;28;20048;-67
2023/05/26 04:50:23;;;;;;;38.85;9.63;;;13.00;99.90;;;13.34;72.22;102951.41;5085228;28;20412;-67
2023/05/26 04:52:51;;;;;;;43.95;9.88;;;13.00;99.90;;;13.25;72.10;102945.94;5101314;28;20079;-67
2023/05/26 04:55:20;;;;;;;40.20;10.18;;;13.00;99.90;;;13.27;72.34;102949.53;5082766;28;20551;-67
2023/05/26 04:57:49;;;;;;;38.63;9.73;;;13.00;99.90;;;13.29;72.22;102952.19;5094054;28;20071;-67
2023/05/26 05:00:20;;;;;;;37.45;10.43;;;13.00;99.90;;;13.33;72.30;102956.72;5083178;28;20052;-67
2023/05/26 05:02:53;;;;;;;37.30;9.55;;;13.00;99.90;;;13.24;71.87;102954.75;5055673;28;20057;-67
2023/05/26 05:05:41;;;;;;;35.03;10.05;;;13.00;99.90;;;13.31;72.08;102945.16;5078266;28;20612;-67
2023/05/26 05:08:10;;;;;;;36.28;9.73;;;13.10;99.90;;;13.29;71.71;102971.72;5084909;28;20040;-67
2023/05/26 05:10:39;;;;;;;36.38;9.27;;;13.00;99.90;;;13.01;72.25;102973.75;5083920;28;20497;-67
2023/05/26 05:13:09;;;;;;;34.67;10.23;;;12.80;99.90;;;13.16;72.64;102977.63;5083854;28;20048;-67
2023/05/26 05:15:39;;;;;;;38.67;8.88;;;12.90;99.90;;;13.06;72.88;102980.13;5067369;28;20064;-67
2023/05/26 05:18:07;;;;;;;35.43;9.23;;;12.90;99.90;;;13.18;72.68;102978.56;5082693;28;20044;-67
2023/05/26 05:20:36;;;;;;;37.22;9.70;;;12.90;99.90;;;13.31;72.73;102975.28;5101361;28;20048;-67
2023/05/26 05:23:05;;;;;;;36.85;9.95;;;13.00;99.90;;;12.81;73.52;102960.13;5098846;28;20059;-67
2023/05/26 05:25:33;;;;;;;32.38;9.25;;;12.60;99.90;;;12.94;72.83;102964.78;5086417;28;20048;-67
2023/05/26 05:28:02;;;;;;;38.90;9.65;;;12.70;99.90;;;13.04;72.76;102979.19;5053507;28;20077;-67
2023/05/26 05:30:32;;;;;;;43.57;9.27;;;12.70;99.90;;;13.26;72.82;102987.59;5101222;28;20068;-67
2023/05/26 05:33:02;;;;;;;36.78;9.15;;;12.90;99.90;;;13.37;72.64;102987.78;5099272;28;20102;-67
2023/05/26 05:35:30;;;;;;;36.75;9.43;;;13.00;99.90;;;13.34;71.80;102982.41;5083577;28;20044;-67
2023/05/26 05:38:01;;;;;;;40.75;10.00;;;13.10;99.90;;;13.35;71.74;102990.44;5083311;28;20044;-67
2023/05/26 05:40:29;;;;;;;;;;;13.10;99.90;;;13.37;71.44;102987.78;5082434;28;20387;-67
2023/05/26 05:42:58;;;;;;;34.00;9.13;;;13.10;99.90;;;13.40;71.58;102985.19;5085387;28;20388;-67
2023/05/26 05:45:27;;;;;;;42.92;9.57;;;13.20;99.90;;;13.41;71.35;102982.53;5081198;28;20487;-67
2023/05/26 05:48:26;;;;;;;40.13;11.18;;;13.30;99.90;;;13.53;71.14;102993.41;5076860;28;20699;-67
2023/05/26 05:51:00;;;;;;;43.67;10.02;;;13.30;99.90;;;13.70;71.03;102996.38;5083186;28;20048;-67
2023/05/26 05:53:29;;;;;;;40.03;9.57;;;13.40;99.90;;;13.79;70.68;102998.25;5082384;28;20139;-67
2023/05/26 05:55:57;;;;;;;38.90;10.13;;;13.50;99.90;;;13.93;70.14;103002.06;5082284;28;20056;-67
2023/05/26 05:58:26;;;;;;;36.08;9.13;;;13.70;99.90;;;14.07;70.09;103006.72;5099997;28;20044;-67
2023/05/26 06:00:54;;;;;;;40.22;9.80;;;13.80;99.90;;;13.70;69.98;102993.69;5081465;28;20551;-67
2023/05/26 06:03:22;;;;;;;40.45;9.13;;;13.50;99.90;;;13.67;69.28;102966.13;5100781;28;20054;-67
2023/05/26 06:05:53;;;;;;;32.72;8.60;;;13.60;99.90;;;13.82;68.94;102990.34;5080509;28;20524;-67
2023/05/26 06:08:21;;;;;;;38.33;9.45;;;13.60;99.90;;;13.74;69.14;102998.22;5085134;28;20512;-67
2023/05/26 06:10:51;;;;;;;41.13;10.00;;;13.50;99.90;;;13.65;69.78;102997.13;5098300;28;20045;-67
2023/05/26 06:13:20;;;;;;;37.15;9.60;;;13.40;99.90;;;13.67;69.20;102998.94;5083038;28;20139;-67
2023/05/26 06:15:48;;;;;;;36.40;9.15;;;13.40;99.90;;;13.69;69.30;102975.03;5082873;28;20055;-67
2023/05/26 06:18:18;;;;;;;42.22;9.23;;;13.50;99.90;;;13.95;69.02;103001.22;5082015;28;20090;-67
2023/05/26 06:20:47;;;;;;;;;;;13.60;99.90;;;14.02;68.57;103000.44;5067448;28;20409;-67
2023/05/26 06:23:17;;;;;;;38.00;9.15;;;13.80;99.90;;;14.11;68.75;102992.56;5082231;28;20381;-67
2023/05/26 06:25:46;;;;;;;37.97;9.68;;;13.80;99.90;;;14.18;68.70;102996.25;5101046;28;20044;-67
2023/05/26 06:28:17;;;;;;;36.65;9.68;;;13.90;99.90;;;14.26;67.86;103002.56;5077373;28;20563;-68
2023/05/26 06:30:46;;;;;;;38.00;9.05;;;14.00;99.90;;;13.90;67.81;103012.66;5082930;28;20109;-68
2023/05/26 06:33:33;;;;;;;43.10;10.45;;;13.80;99.90;;;14.16;68.70;103019.28;5077540;28;20102;-67
2023/05/26 06:36:02;;;;;;;39.50;9.85;;;13.80;99.90;;;14.29;68.30;103005.31;5083334;28;20486;-67
2023/05/26 06:38:32;;;;;;;32.72;9.18;;;14.00;99.90;;;14.41;67.79;103000.16;5081998;28;20040;-67
2023/05/26 06:41:06;;;;;;;36.95;9.00;;;14.10;99.90;;;13.82;68.53;102995.66;5081665;28;20048;-67
2023/05/26 06:43:36;;;;;;;40.17;8.55;;;13.90;99.90;;;13.33;70.69;103007.22;5082491;28;20045;-68
2023/05/26 06:46:06;;;;;;;37.33;9.70;;;13.30;99.90;;;13.53;70.40;102996.06;5097430;28;20370;-67
2023/05/26 06:48:38;;;;;;;35.70;9.10;;;13.30;99.90;;;13.88;69.71;102998.44;5092741;28;20102;-67
2023/05/26 06:51:44;;;;;;;38.08;9.52;;;13.50;99.90;;;14.11;69.07;102999.69;5065094;28;20053;-67
2023/05/26 06:54:15;;;;;;;33.88;9.63;;;13.70;99.90;;;14.18;68.54;102989.16;5098468;28;20068;-68
2023/05/26 06:56:44;;;;;;;30.15;9.13;;;14.00;99.90;;;14.19;68.50;103001.56;5099100;28;20052;-67
2023/05/26 06:59:15;;;;;;;;;;;14.00;99.90;;;14.44;67.99;103013.50;5097295;28;20497;-68
2023/05/26 07:01:44;;;;;;;34.25;8.90;;;14.20;99.90;;;14.63;67.49;103002.25;5059322;28;19932;-68
2023/05/26 07:04:12;;;;;;;35.22;9.35;;;14.30;99.90;;;14.63;66.77;103012.00;5076159;28;20040;-68
2023/05/26 07:06:42;;;;;;;33.13;9.02;;;14.40;99.90;;;14.19;67.18;103009.56;5082692;28;20102;-68
2023/05/26 07:09:21;;;;;;;35.47;9.65;;;14.00;99.90;;;14.15;68.20;103020.16;5098926;28;20059;-68
2023/05/26 07:12:11;;;;;;;36.58;9.68;;;14.00;99.90;;;14.53;67.93;103026.97;5079766;28;20083;-68
2023/05/26 07:14:52;;;;;;;32.22;8.82;;;14.20;99.90;;;14.79;66.66;103014.00;5092730;28;20052;-68
2023/05/26 07:17:20;;;;;;;35.20;8.50;;;14.50;99.90;;;14.85;65.23;103001.63;5084317;28;20047;-68
2023/05/26 07:19:51;;;;;;;33.72;8.43;;;14.60;99.90;;;14.98;65.23;103010.69;5080587;28;20868;-68
2023/05/26 07:22:20;;;;;;;38.72;9.15;;;14.70;99.90;;;14.84;64.71;103015.84;5081429;28;20428;-68
2023/05/26 07:25:10;;;;;;;39.05;8.73;;;14.70;99.90;;;15.01;64.81;103018.69;5076771;28;20041;-68
2023/05/26 07:27:47;;;;;;;33.05;8.57;;;14.70;99.90;;;15.01;64.64;103003.63;5080070;28;20067;-68
2023/05/26 07:30:16;;;;;;;33.90;9.18;;;14.80;99.90;;;15.24;64.20;103020.75;5099124;28;20076;-68
2023/05/26 07:33:13;;;;;;;35.53;10.02;;;14.90;99.90;;;15.17;63.77;103015.34;5069804;28;20055;-68
2023/05/26 07:35:42;;;;;;;37.63;9.35;;;15.00;99.90;;;15.29;64.47;103026.16;5078945;28;20093;-68
2023/05/26 07:38:12;;;;;;;36.53;9.23;;;15.00;99.90;;;14.92;64.45;103023.94;5051893;28;20049;-68
2023/05/26 07:40:42;;;;;;;31.65;9.40;;;14.80;99.90;;;14.61;65.78;103012.00;5083496;28;20451;-68
2023/05/26 07:43:12;;;;;;;32.25;9.23;;;14.50;99.90;;;14.70;65.57;103013.88;5081579;28;20044;-67
2023/05/26 07:45:41;;;;;;;38.70;8.82;;;14.40;99.90;;;14.50;65.57;103004.72;5082259;28;20047;-68
2023/05/26 07:48:10;;;;;;;29.00;8.35;;;14.30;99.90;;;14.65;65.07;103013.81;5098175;28;20045;-68
2023/05/26 07:50:38;;;;;;;31.17;9.52;;;14.30;99.90;;;15.09;64.06;103006.38;5081461;28;20102;-68
2023/05/26 07:53:07;;;;;;;31.33;8.98;;;14.70;99.90;;;15.37;63.96;103006.66;5083299;28;20122;-68
2023/05/26 07:55:35;;;;;;;27.27;8.85;;;15.00;99.90;;;15.64;62.92;103005.19;5080339;28;20052;-67
2023/05/26 07:58:05;;;;;;;33.30;8.90;;;15.30;99.90;;;15.85;61.97;103013.38;5076559;28;20064;-67
2023/05/26 08:00:34;;;;;;;37.43;9.10;;;15.50;99.90;;;16.06;61.50;103010.88;5083454;28;20098;-68
2023/05/26 08:03:02;;;;;;;35.28;9.55;;;15.80;99.90;;;15.50;63.43;103026.41;5081012;28;20297;-68
2023/05/26 08:05:31;;;;;;;34.72;9.25;;;15.40;99.90;;;15.93;61.87;103004.53;5082606;28;20404;-68
2023/05/26 08:07:59;;;;;;;30.50;8.18;;;15.70;99.90;;;16.14;61.65;103010.03;5081953;28;20050;-68
2023/05/26 08:10:28;;;;;;;31.13;9.23;;;15.90;99.90;;;15.68;60.98;102886.94;5081767;28;20044;-68
2023/05/26 08:12:56;;;;;;;31.95;8.55;;;16.10;99.90;;;16.57;60.07;103008.56;5082377;28;20485;-68
2023/05/26 08:15:26;;;;;;;31.10;8.93;;;16.30;99.90;;;16.64;58.77;103018.41;5080805;28;20067;-68
2023/05/26 08:17:54;;;;;;;26.80;7.90;;;16.40;99.90;;;16.22;58.91;102897.91;5083510;28;20040;-68
2023/05/26 08:20:23;;;;;;;29.92;7.53;;;16.50;99.90;;;16.71;56.94;103028.22;5080010;28;20485;-68
2023/05/26 08:22:52;;;;;;;26.60;7.93;;;16.60;99.90;;;16.31;58.52;103009.25;5076237;28;20090;-68
2023/05/26 08:25:20;;;;;;;28.42;8.65;;;16.10;99.90;;;16.27;57.96;103009.25;5081937;28;20044;-68
2023/05/26 08:27:48;;;;;;;28.92;8.23;;;16.00;99.90;;;16.55;57.74;103014.81;5081054;28;20044;-68
2023/05/26 08:30:17;;;;;;;29.58;7.80;;;16.20;99.90;;;16.40;58.01;103014.66;5081287;28;20059;-68
2023/05/26 08:32:46;;;;;;;30.95;8.07;;;16.10;99.90;;;16.62;56.64;103006.81;5081645;28;20090;-68
2023/05/26 08:35:15;;;;;;;25.70;7.93;;;16.30;99.90;;;16.74;56.28;103014.00;5081509;28;20075;-68
2023/05/26 08:37:44;;;;;;;30.23;8.45;;;16.40;99.90;;;16.96;56.66;103011.41;5082414;28;20076;-68
2023/05/26 08:40:14;;;;;;;28.17;7.63;;;16.60;99.90;;;17.30;57.45;103014.19;5083916;28;20351;-68
2023/05/26 08:42:47;;;;;;;25.73;8.50;;;16.90;99.90;;;17.35;55.35;103018.66;5102948;28;20052;-68
2023/05/26 08:45:16;;;;;;;23.75;7.80;;;17.10;99.90;;;17.43;55.62;103018.66;5080892;28;20056;-68
2023/05/26 08:47:48;;;;;;;28.90;7.75;;;17.20;99.90;;;17.35;55.94;102999.03;5085982;28;20118;-68
2023/05/26 08:50:20;;;;;;;30.55;8.82;;;17.20;99.90;;;17.16;55.18;103019.50;5085831;28;20044;-68
2023/05/26 08:52:51;;;;;;;28.92;7.68;;;17.00;99.90;;;17.49;54.86;103027.66;5083973;28;20048;-68
2023/05/26 08:55:39;;;;;;;22.83;7.70;;;17.20;99.90;;;17.42;55.80;103019.56;5083734;28;20135;-68
2023/05/26 08:58:09;;;;;;;28.58;7.93;;;17.10;99.90;;;17.72;56.01;103027.66;5084529;28;20044;-68
2023/05/26 09:00:40;;;;;;;29.90;8.48;;;17.40;99.90;;;17.91;55.24;103025.00;5086453;28;20048;-68
2023/05/26 09:03:09;;;;;;;;;;;17.60;99.90;;;18.03;53.80;103018.75;5087215;28;20040;-68
2023/05/26 09:05:38;;;;;;;27.55;8.68;;;17.80;99.90;;;17.94;52.16;103016.09;5083461;28;19920;-68
2023/05/26 09:08:06;;;;;;;28.27;8.95;;;17.70;99.90;;;17.97;52.85;103027.69;5085885;28;20071;-68
2023/05/26 09:10:35;;;;;;;26.63;7.25;;;17.70;99.90;;;18.14;52.85;103030.34;5084315;28;20057;-68
2023/05/26 09:13:09;;;;;;;28.30;7.57;;;17.80;99.90;;;18.20;52.07;103016.94;5083835;28;20382;-68
2023/05/26 09:15:39;;;;;;;24.48;7.85;;;17.90;99.90;;;18.32;51.54;103016.91;5068129;28;20404;-68
2023/05/26 09:18:12;;;;;;;23.58;7.30;;;18.10;99.90;;;18.33;51.29;103007.09;5083102;28;20114;-68
2023/05/26 09:20:41;;;;;;;25.73;7.68;;;18.20;99.90;;;18.53;51.79;103018.69;5079722;28;20454;-68
2023/05/26 09:23:10;;;;;;;26.20;8.15;;;18.30;99.90;;;18.66;51.32;103031.19;5085456;28;20044;-68
2023/05/26 09:25:41;;;;;;;29.08;8.52;;;18.40;99.90;;;18.58;51.38;103023.13;5083986;28;20444;-69
2023/05/26 09:28:12;;;;;;;22.88;8.23;;;18.40;99.90;;;18.83;51.91;103027.50;5084211;28;20086;-68
2023/05/26 09:30:43;;;;;;;22.23;7.60;;;18.50;99.90;;;19.07;50.25;103028.28;5085377;28;20044;-68
2023/05/26 09:33:16;;;;;;;23.67;7.85;;;18.70;99.90;;;19.10;49.56;103033.66;5098654;28;20052;-68
2023/05/26 09:35:46;;;;;;;23.13;7.93;;;18.90;99.90;;;19.08;49.17;103024.72;5079718;28;20041;-68
2023/05/26 09:38:16;;;;;;;23.67;7.55;;;18.90;99.90;;;19.19;50.53;103033.59;5085118;28;20055;-68
2023/05/26 09:40:47;;;;;;;26.75;8.52;;;18.90;99.90;;;19.01;49.26;103017.63;5084042;28;20123;-68
2023/05/26 09:43:20;;;;;;;23.67;7.63;;;18.80;99.90;;;19.15;49.42;103030.06;5083803;28;20591;-68
2023/05/26 09:45:48;;;;;;;23.08;7.60;;;18.90;99.90;;;19.08;48.54;103017.59;5086193;28;20048;-68
2023/05/26 09:48:18;;;;;;;22.38;7.75;;;18.90;99.90;;;18.79;48.53;103012.31;5086214;28;20133;-68
2023/05/26 09:50:46;;;;;;;26.37;7.97;;;18.60;99.90;;;18.82;49.02;103017.69;5080349;28;20063;-68
2023/05/26 09:53:14;;;;;;;26.50;8.27;;;18.60;99.90;;;18.66;49.59;103026.69;5085239;28;20040;-68
2023/05/26 09:55:44;;;;;;;26.17;8.25;;;18.40;99.90;;;17.44;51.53;103015.97;5083102;28;20132;-68
2023/05/26 09:58:14;;;;;;;22.13;7.68;;;17.70;99.90;;;17.75;51.69;103015.16;5084232;28;20044;-68
2023/05/26 10:00:44;;;;;;;31.05;8.85;;;17.40;99.90;;;18.15;52.06;102991.94;5084084;28;20045;-68
2023/05/26 10:03:14;;;;;;;25.35;7.78;;;17.80;99.90;;;18.40;50.87;103004.41;5081723;28;20060;-68
2023/05/26 10:05:46;;;;;;;26.58;7.75;;;18.10;99.90;;;18.14;49.27;102998.19;5085094;28;20067;-68
2023/05/26 10:08:19;;;;;;;27.15;7.57;;;17.90;99.90;;;18.21;49.21;103013.38;5085291;28;20047;-69
2023/05/26 10:10:50;;;;;;;24.42;7.57;;;18.00;99.90;;;17.96;51.55;103019.66;5083049;28;20053;-68
2023/05/26 10:13:18;;;;;;;21.05;7.35;;;17.60;99.90;;;18.31;49.78;103006.22;5082331;28;20075;-68
2023/05/26 10:15:48;;;;;;;21.30;7.43;;;18.00;99.90;;;18.59;49.14;103006.16;5083880;28;20477;-68
2023/05/26 10:18:17;;;;;;;20.02;7.07;;;18.20;99.90;;;18.32;46.98;103006.19;5082182;28;20052;-68
2023/05/26 10:20:51;;;;;;;19.70;7.03;;;18.20;99.90;;;18.19;47.82;103007.13;5084997;28;20463;-68